sensor_id;sensor_type;location;lat;lon;timestamp;P1;durP1;ratioP1;P2;durP2;ratioP2
13208;SDS011;6669;42.678;23.332;2022-07-29T00:02:06;7.72;;;7.13;;
13208;SDS011;6669;42.678;23.332;2022-07-29T00:04:34;7.95;;;7.25;;
13208;SDS011;6669;42.678;23.332;2022-07-29T00:07:03;9.88;;;7.55;;
13208;SDS011;6669;42.678;23.332;2022-07-29T00:09:31;7.22;;;6.63;;
13208;SDS011;6669;42.678;23.332;2022-07-29T00:12:16;7.60;;;6.90;;
13208;SDS011;6669;42.678;23.332;2022-07-29T00:14:51;7.88;;;7.18;;
13208;SDS011;6669;42.678;23.332;2022-07-29T00:17:21;8.13;;;7.47;;
13208;SDS011;6669;42.678;23.332;2022-07-29T00:19:50;7.45;;;6.75;;
13208;SDS011;6669;42.678;23.332;2022-07-29T00:22:18;7.40;;;6.78;;
13208;SDS011;6669;42.678;23.332;2022-07-29T00:24:46;10.07;;;8.00;;
13208;SDS011;6669;42.678;23.332;2022-07-29T00:27:15;7.15;;;6.43;;
13208;SDS011;6669;42.678;23.332;2022-07-29T00:29:43;7.82;;;7.13;;
13208;SDS011;6669;42.678;23.332;2022-07-29T00:32:12;7.45;;;6.75;;
13208;SDS011;6669;42.678;23.332;2022-07-29T00:34:42;7.30;;;6.60;;
13208;SDS011;6669;42.678;23.332;2022-07-29T00:37:27;7.38;;;6.72;;
13208;SDS011;6669;42.678;23.332;2022-07-29T00:39:55;8.35;;;7.40;;
13208;SDS011;6669;42.678;23.332;2022-07-29T00:42:23;7.53;;;6.93;;
13208;SDS011;6669;42.678;23.332;2022-07-29T00:44:51;6.95;;;6.35;;
13208;SDS011;6669;42.678;23.332;2022-07-29T00:47:19;7.43;;;6.82;;
13208;SDS011;6669;42.678;23.332;2022-07-29T00:49:49;7.68;;;7.07;;
13208;SDS011;6669;42.678;23.332;2022-07-29T00:52:17;8.00;;;7.40;;
13208;SDS011;6669;42.678;23.332;2022-07-29T00:54:45;7.90;;;7.22;;
13208;SDS011;6669;42.678;23.332;2022-07-29T00:57:13;7.90;;;7.07;;
13208;SDS011;6669;42.678;23.332;2022-07-29T00:59:42;8.30;;;7.57;;
13208;SDS011;6669;42.678;23.332;2022-07-29T01:02:10;10.73;;;9.65;;
13208;SDS011;6669;42.678;23.332;2022-07-29T01:04:38;10.30;;;9.32;;
13208;SDS011;6669;42.678;23.332;2022-07-29T01:07:08;10.85;;;9.90;;
13208;SDS011;6669;42.678;23.332;2022-07-29T01:09:36;11.65;;;10.65;;
13208;SDS011;6669;42.678;23.332;2022-07-29T01:12:12;10.93;;;10.10;;
13208;SDS011;6669;42.678;23.332;2022-07-29T01:14:42;12.43;;;10.70;;
13208;SDS011;6669;42.678;23.332;2022-07-29T01:17:11;11.50;;;10.50;;
13208;SDS011;6669;42.678;23.332;2022-07-29T01:19:48;12.38;;;11.07;;
13208;SDS011;6669;42.678;23.332;2022-07-29T01:22:27;11.52;;;10.43;;
13208;SDS011;6669;42.678;23.332;2022-07-29T01:25:10;11.65;;;10.55;;
13208;SDS011;6669;42.678;23.332;2022-07-29T01:28:00;11.55;;;10.45;;
13208;SDS011;6669;42.678;23.332;2022-07-29T01:30:39;11.25;;;10.20;;
13208;SDS011;6669;42.678;23.332;2022-07-29T01:33:11;11.57;;;10.55;;
13208;SDS011;6669;42.678;23.332;2022-07-29T01:36:05;10.15;;;9.32;;
13208;SDS011;6669;42.678;23.332;2022-07-29T01:38:39;10.13;;;9.27;;
13208;SDS011;6669;42.678;23.332;2022-07-29T01:41:09;10.27;;;9.48;;
13208;SDS011;6669;42.678;23.332;2022-07-29T01:43:44;10.38;;;9.50;;
13208;SDS011;6669;42.678;23.332;2022-07-29T01:46:19;10.68;;;9.75;;
13208;SDS011;6669;42.678;23.332;2022-07-29T01:48:53;11.80;;;10.70;;
13208;SDS011;6669;42.678;23.332;2022-07-29T01:51:27;11.18;;;10.20;;
13208;SDS011;6669;42.678;23.332;2022-07-29T01:53:59;10.75;;;9.80;;
13208;SDS011;6669;42.678;23.332;2022-07-29T01:56:32;10.98;;;10.07;;
13208;SDS011;6669;42.678;23.332;2022-07-29T01:59:03;11.82;;;10.63;;
13208;SDS011;6669;42.678;23.332;2022-07-29T02:01:37;11.32;;;10.32;;
13208;SDS011;6669;42.678;23.332;2022-07-29T02:04:09;11.50;;;10.50;;
13208;SDS011;6669;42.678;23.332;2022-07-29T02:06:57;11.27;;;10.27;;
13208;SDS011;6669;42.678;23.332;2022-07-29T02:09:29;10.68;;;9.57;;
13208;SDS011;6669;42.678;23.332;2022-07-29T02:11:59;11.73;;;10.73;;
13208;SDS011;6669;42.678;23.332;2022-07-29T02:14:30;12.75;;;11.75;;
13208;SDS011;6669;42.678;23.332;2022-07-29T02:17:02;12.52;;;11.32;;
13208;SDS011;6669;42.678;23.332;2022-07-29T02:19:31;12.63;;;11.52;;
13208;SDS011;6669;42.678;23.332;2022-07-29T02:22:01;12.68;;;11.57;;
13208;SDS011;6669;42.678;23.332;2022-07-29T02:24:30;12.05;;;11.02;;
13208;SDS011;6669;42.678;23.332;2022-07-29T02:26:58;12.00;;;11.00;;
13208;SDS011;6669;42.678;23.332;2022-07-29T02:29:28;11.48;;;10.38;;
13208;SDS011;6669;42.678;23.332;2022-07-29T02:31:59;11.70;;;10.70;;
13208;SDS011;6669;42.678;23.332;2022-07-29T02:34:32;12.07;;;11.00;;
13208;SDS011;6669;42.678;23.332;2022-07-29T02:37:02;11.98;;;10.95;;
13208;SDS011;6669;42.678;23.332;2022-07-29T02:39:31;11.57;;;10.57;;
13208;SDS011;6669;42.678;23.332;2022-07-29T02:42:01;10.45;;;9.60;;
13208;SDS011;6669;42.678;23.332;2022-07-29T02:44:31;11.93;;;10.82;;
13208;SDS011;6669;42.678;23.332;2022-07-29T02:47:02;11.98;;;10.98;;
13208;SDS011;6669;42.678;23.332;2022-07-29T02:49:41;11.52;;;10.48;;
13208;SDS011;6669;42.678;23.332;2022-07-29T02:52:18;11.65;;;10.60;;
13208;SDS011;6669;42.678;23.332;2022-07-29T02:54:51;11.52;;;10.43;;
13208;SDS011;6669;42.678;23.332;2022-07-29T02:57:27;11.80;;;10.63;;
13208;SDS011;6669;42.678;23.332;2022-07-29T03:00:19;11.82;;;10.75;;
13208;SDS011;6669;42.678;23.332;2022-07-29T03:02:50;10.52;;;9.73;;
13208;SDS011;6669;42.678;23.332;2022-07-29T03:05:22;11.80;;;10.80;;
13208;SDS011;6669;42.678;23.332;2022-07-29T03:07:52;10.98;;;10.05;;
13208;SDS011;6669;42.678;23.332;2022-07-29T03:10:23;10.05;;;9.15;;
13208;SDS011;6669;42.678;23.332;2022-07-29T03:12:55;10.68;;;9.30;;
13208;SDS011;6669;42.678;23.332;2022-07-29T03:15:24;10.35;;;9.30;;
13208;SDS011;6669;42.678;23.332;2022-07-29T03:17:53;9.18;;;8.43;;
13208;SDS011;6669;42.678;23.332;2022-07-29T03:20:24;9.57;;;8.68;;
13208;SDS011;6669;42.678;23.332;2022-07-29T03:22:52;8.93;;;8.13;;
13208;SDS011;6669;42.678;23.332;2022-07-29T03:25:20;9.55;;;7.75;;
13208;SDS011;6669;42.678;23.332;2022-07-29T03:27:48;9.52;;;8.73;;
13208;SDS011;6669;42.678;23.332;2022-07-29T03:30:16;8.65;;;7.97;;
13208;SDS011;6669;42.678;23.332;2022-07-29T03:32:47;9.85;;;8.95;;
13208;SDS011;6669;42.678;23.332;2022-07-29T03:35:17;9.48;;;8.68;;
13208;SDS011;6669;42.678;23.332;2022-07-29T03:37:47;10.52;;;9.52;;
13208;SDS011;6669;42.678;23.332;2022-07-29T03:40:16;10.13;;;9.23;;
13208;SDS011;6669;42.678;23.332;2022-07-29T03:42:49;10.75;;;9.52;;
13208;SDS011;6669;42.678;23.332;2022-07-29T03:45:19;9.75;;;8.77;;
13208;SDS011;6669;42.678;23.332;2022-07-29T03:47:50;8.80;;;8.00;;
13208;SDS011;6669;42.678;23.332;2022-07-29T03:50:26;9.27;;;8.38;;
13208;SDS011;6669;42.678;23.332;2022-07-29T03:52:57;9.25;;;8.38;;
13208;SDS011;6669;42.678;23.332;2022-07-29T03:55:28;9.18;;;8.38;;
13208;SDS011;6669;42.678;23.332;2022-07-29T03:57:59;9.35;;;8.60;;
13208;SDS011;6669;42.678;23.332;2022-07-29T04:00:31;9.50;;;8.60;;
13208;SDS011;6669;42.678;23.332;2022-07-29T04:02:59;9.48;;;8.40;;
13208;SDS011;6669;42.678;23.332;2022-07-29T04:05:29;9.52;;;8.38;;
13208;SDS011;6669;42.678;23.332;2022-07-29T04:07:58;10.45;;;8.10;;
13208;SDS011;6669;42.678;23.332;2022-07-29T04:10:29;10.07;;;8.18;;
13208;SDS011;6669;42.678;23.332;2022-07-29T04:13:01;8.95;;;8.15;;
13208;SDS011;6669;42.678;23.332;2022-07-29T04:15:29;8.93;;;8.13;;
13208;SDS011;6669;42.678;23.332;2022-07-29T04:17:57;9.02;;;8.30;;
13208;SDS011;6669;42.678;23.332;2022-07-29T04:20:26;9.38;;;8.50;;
13208;SDS011;6669;42.678;23.332;2022-07-29T04:22:54;8.57;;;7.78;;
13208;SDS011;6669;42.678;23.332;2022-07-29T04:25:26;8.70;;;7.90;;
13208;SDS011;6669;42.678;23.332;2022-07-29T04:27:54;9.23;;;8.23;;
13208;SDS011;6669;42.678;23.332;2022-07-29T04:30:29;9.13;;;8.25;;
13208;SDS011;6669;42.678;23.332;2022-07-29T04:32:57;9.75;;;8.00;;
13208;SDS011;6669;42.678;23.332;2022-07-29T04:35:29;9.65;;;8.77;;
13208;SDS011;6669;42.678;23.332;2022-07-29T04:38:04;8.93;;;8.02;;
13208;SDS011;6669;42.678;23.332;2022-07-29T04:40:48;9.10;;;8.18;;
13208;SDS011;6669;42.678;23.332;2022-07-29T04:43:16;9.25;;;8.25;;
13208;SDS011;6669;42.678;23.332;2022-07-29T04:45:48;8.82;;;8.00;;
13208;SDS011;6669;42.678;23.332;2022-07-29T04:48:16;9.68;;;8.77;;
13208;SDS011;6669;42.678;23.332;2022-07-29T04:50:46;9.88;;;8.98;;
13208;SDS011;6669;42.678;23.332;2022-07-29T04:53:14;8.88;;;7.95;;
13208;SDS011;6669;42.678;23.332;2022-07-29T04:55:44;8.48;;;7.70;;
13208;SDS011;6669;42.678;23.332;2022-07-29T04:58:12;9.07;;;8.27;;
13208;SDS011;6669;42.678;23.332;2022-07-29T05:00:40;9.02;;;8.15;;
13208;SDS011;6669;42.678;23.332;2022-07-29T05:03:08;8.77;;;7.90;;
13208;SDS011;6669;42.678;23.332;2022-07-29T05:05:36;8.10;;;7.30;;
13208;SDS011;6669;42.678;23.332;2022-07-29T05:08:04;8.48;;;7.70;;
13208;SDS011;6669;42.678;23.332;2022-07-29T05:10:32;8.90;;;7.85;;
13208;SDS011;6669;42.678;23.332;2022-07-29T05:13:05;10.02;;;8.15;;
13208;SDS011;6669;42.678;23.332;2022-07-29T05:15:34;8.43;;;6.82;;
13208;SDS011;6669;42.678;23.332;2022-07-29T05:18:03;7.78;;;7.18;;
13208;SDS011;6669;42.678;23.332;2022-07-29T05:20:32;7.93;;;7.13;;
13208;SDS011;6669;42.678;23.332;2022-07-29T05:23:01;7.20;;;6.60;;
13208;SDS011;6669;42.678;23.332;2022-07-29T05:25:30;6.57;;;6.07;;
13208;SDS011;6669;42.678;23.332;2022-07-29T05:28:11;7.20;;;6.28;;
13208;SDS011;6669;42.678;23.332;2022-07-29T05:30:39;6.68;;;6.07;;
13208;SDS011;6669;42.678;23.332;2022-07-29T05:33:07;6.53;;;5.63;;
13208;SDS011;6669;42.678;23.332;2022-07-29T05:35:55;8.02;;;5.25;;
13208;SDS011;6669;42.678;23.332;2022-07-29T05:38:26;5.80;;;5.30;;
13208;SDS011;6669;42.678;23.332;2022-07-29T05:40:56;7.53;;;5.70;;
13208;SDS011;6669;42.678;23.332;2022-07-29T05:43:26;8.45;;;5.65;;
13208;SDS011;6669;42.678;23.332;2022-07-29T05:45:54;8.90;;;6.55;;
13208;SDS011;6669;42.678;23.332;2022-07-29T05:48:22;8.40;;;5.60;;
13208;SDS011;6669;42.678;23.332;2022-07-29T05:50:50;8.32;;;5.95;;
13208;SDS011;6669;42.678;23.332;2022-07-29T05:53:19;7.55;;;6.05;;
13208;SDS011;6669;42.678;23.332;2022-07-29T05:55:47;7.15;;;6.45;;
13208;SDS011;6669;42.678;23.332;2022-07-29T05:58:17;6.78;;;6.13;;
13208;SDS011;6669;42.678;23.332;2022-07-29T06:00:46;6.25;;;5.65;;
13208;SDS011;6669;42.678;23.332;2022-07-29T06:03:14;9.88;;;7.05;;
13208;SDS011;6669;42.678;23.332;2022-07-29T06:05:43;15.02;;;8.98;;
13208;SDS011;6669;42.678;23.332;2022-07-29T06:08:11;5.15;;;4.65;;
13208;SDS011;6669;42.678;23.332;2022-07-29T06:10:39;8.68;;;6.20;;
13208;SDS011;6669;42.678;23.332;2022-07-29T06:13:07;6.90;;;5.70;;
13208;SDS011;6669;42.678;23.332;2022-07-29T06:15:35;6.18;;;5.60;;
13208;SDS011;6669;42.678;23.332;2022-07-29T06:18:05;6.32;;;5.60;;
13208;SDS011;6669;42.678;23.332;2022-07-29T06:20:36;8.82;;;6.28;;
13208;SDS011;6669;42.678;23.332;2022-07-29T06:23:04;6.40;;;5.13;;
13208;SDS011;6669;42.678;23.332;2022-07-29T06:25:32;9.00;;;5.55;;
13208;SDS011;6669;42.678;23.332;2022-07-29T06:28:03;6.85;;;5.30;;
13208;SDS011;6669;42.678;23.332;2022-07-29T06:30:32;6.28;;;5.03;;
13208;SDS011;6669;42.678;23.332;2022-07-29T06:33:01;4.85;;;4.30;;
13208;SDS011;6669;42.678;23.332;2022-07-29T06:35:32;6.15;;;4.90;;
13208;SDS011;6669;42.678;23.332;2022-07-29T06:38:07;5.45;;;4.93;;
13208;SDS011;6669;42.678;23.332;2022-07-29T06:40:56;7.97;;;6.15;;
13208;SDS011;6669;42.678;23.332;2022-07-29T06:43:32;6.57;;;5.00;;
13208;SDS011;6669;42.678;23.332;2022-07-29T06:46:16;5.93;;;5.00;;
13208;SDS011;6669;42.678;23.332;2022-07-29T06:48:46;6.40;;;5.03;;
13208;SDS011;6669;42.678;23.332;2022-07-29T06:51:16;5.72;;;4.70;;
13208;SDS011;6669;42.678;23.332;2022-07-29T06:53:49;6.65;;;5.55;;
13208;SDS011;6669;42.678;23.332;2022-07-29T06:56:28;5.50;;;5.05;;
13208;SDS011;6669;42.678;23.332;2022-07-29T06:58:56;5.32;;;4.90;;
13208;SDS011;6669;42.678;23.332;2022-07-29T07:01:26;6.00;;;4.40;;
13208;SDS011;6669;42.678;23.332;2022-07-29T07:03:55;6.53;;;4.65;;
13208;SDS011;6669;42.678;23.332;2022-07-29T07:06:25;4.97;;;3.85;;
13208;SDS011;6669;42.678;23.332;2022-07-29T07:08:54;8.32;;;5.70;;
13208;SDS011;6669;42.678;23.332;2022-07-29T07:11:22;5.40;;;4.72;;
13208;SDS011;6669;42.678;23.332;2022-07-29T07:13:50;6.28;;;5.68;;
13208;SDS011;6669;42.678;23.332;2022-07-29T07:16:18;4.97;;;4.28;;
13208;SDS011;6669;42.678;23.332;2022-07-29T07:18:46;4.90;;;4.35;;
13208;SDS011;6669;42.678;23.332;2022-07-29T07:21:14;5.68;;;4.78;;
13208;SDS011;6669;42.678;23.332;2022-07-29T07:23:46;6.68;;;4.40;;
13208;SDS011;6669;42.678;23.332;2022-07-29T07:26:14;4.97;;;3.97;;
13208;SDS011;6669;42.678;23.332;2022-07-29T07:28:42;4.18;;;3.80;;
13208;SDS011;6669;42.678;23.332;2022-07-29T07:31:10;4.82;;;3.85;;
13208;SDS011;6669;42.678;23.332;2022-07-29T07:33:39;4.95;;;3.92;;
13208;SDS011;6669;42.678;23.332;2022-07-29T07:36:07;4.75;;;4.28;;
13208;SDS011;6669;42.678;23.332;2022-07-29T07:38:35;4.20;;;3.80;;
13208;SDS011;6669;42.678;23.332;2022-07-29T07:41:05;4.22;;;3.92;;
13208;SDS011;6669;42.678;23.332;2022-07-29T07:43:33;3.75;;;3.45;;
13208;SDS011;6669;42.678;23.332;2022-07-29T07:46:01;5.60;;;4.38;;
13208;SDS011;6669;42.678;23.332;2022-07-29T07:48:33;4.00;;;3.70;;
13208;SDS011;6669;42.678;23.332;2022-07-29T07:51:01;3.83;;;3.53;;
13208;SDS011;6669;42.678;23.332;2022-07-29T07:53:29;5.65;;;4.25;;
13208;SDS011;6669;42.678;23.332;2022-07-29T07:55:57;3.78;;;3.47;;
13208;SDS011;6669;42.678;23.332;2022-07-29T07:58:38;3.67;;;3.38;;
13208;SDS011;6669;42.678;23.332;2022-07-29T08:01:06;3.85;;;3.53;;
13208;SDS011;6669;42.678;23.332;2022-07-29T08:03:34;4.70;;;3.35;;
13208;SDS011;6669;42.678;23.332;2022-07-29T08:06:02;3.80;;;3.47;;
13208;SDS011;6669;42.678;23.332;2022-07-29T08:08:31;4.72;;;3.53;;
13208;SDS011;6669;42.678;23.332;2022-07-29T08:10:59;3.63;;;3.33;;
13208;SDS011;6669;42.678;23.332;2022-07-29T08:13:34;3.50;;;3.20;;
13208;SDS011;6669;42.678;23.332;2022-07-29T08:16:03;3.70;;;3.40;;
13208;SDS011;6669;42.678;23.332;2022-07-29T08:18:40;3.78;;;3.47;;
13208;SDS011;6669;42.678;23.332;2022-07-29T08:21:09;4.55;;;2.95;;
13208;SDS011;6669;42.678;23.332;2022-07-29T08:23:40;4.45;;;3.20;;
13208;SDS011;6669;42.678;23.332;2022-07-29T08:26:25;3.90;;;3.10;;
13208;SDS011;6669;42.678;23.332;2022-07-29T08:28:53;3.63;;;3.20;;
13208;SDS011;6669;42.678;23.332;2022-07-29T08:31:23;3.25;;;2.70;;
13208;SDS011;6669;42.678;23.332;2022-07-29T08:33:51;3.72;;;3.17;;
13208;SDS011;6669;42.678;23.332;2022-07-29T08:36:19;3.33;;;3.03;;
13208;SDS011;6669;42.678;23.332;2022-07-29T08:38:48;3.20;;;2.90;;
13208;SDS011;6669;42.678;23.332;2022-07-29T08:41:17;3.15;;;2.92;;
13208;SDS011;6669;42.678;23.332;2022-07-29T08:43:46;4.55;;;3.20;;
13208;SDS011;6669;42.678;23.332;2022-07-29T08:46:15;3.65;;;2.70;;
13208;SDS011;6669;42.678;23.332;2022-07-29T08:48:45;6.18;;;3.08;;
13208;SDS011;6669;42.678;23.332;2022-07-29T08:51:15;3.30;;;2.50;;
13208;SDS011;6669;42.678;23.332;2022-07-29T08:53:46;3.60;;;2.78;;
13208;SDS011;6669;42.678;23.332;2022-07-29T08:56:16;2.60;;;2.40;;
13208;SDS011;6669;42.678;23.332;2022-07-29T08:58:45;3.47;;;2.60;;
13208;SDS011;6669;42.678;23.332;2022-07-29T09:01:21;2.90;;;2.60;;
13208;SDS011;6669;42.678;23.332;2022-07-29T09:04:04;3.28;;;2.60;;
13208;SDS011;6669;42.678;23.332;2022-07-29T09:06:38;2.60;;;2.40;;
13208;SDS011;6669;42.678;23.332;2022-07-29T09:09:10;3.17;;;2.65;;
13208;SDS011;6669;42.678;23.332;2022-07-29T09:11:40;3.03;;;2.75;;
13208;SDS011;6669;42.678;23.332;2022-07-29T09:14:08;3.90;;;2.72;;
13208;SDS011;6669;42.678;23.332;2022-07-29T09:16:50;3.45;;;2.75;;
13208;SDS011;6669;42.678;23.332;2022-07-29T09:22:10;6.85;;;2.63;;
13208;SDS011;6669;42.678;23.332;2022-07-29T09:24:40;3.30;;;2.85;;
13208;SDS011;6669;42.678;23.332;2022-07-29T09:29:56;3.22;;;2.78;;
13208;SDS011;6669;42.678;23.332;2022-07-29T09:32:25;3.03;;;2.83;;
13208;SDS011;6669;42.678;23.332;2022-07-29T09:37:47;4.85;;;2.97;;
13208;SDS011;6669;42.678;23.332;2022-07-29T09:40:17;3.70;;;3.05;;
13208;SDS011;6669;42.678;23.332;2022-07-29T09:42:46;3.63;;;3.33;;
13208;SDS011;6669;42.678;23.332;2022-07-29T09:45:26;5.20;;;3.40;;
13208;SDS011;6669;42.678;23.332;2022-07-29T09:47:56;5.07;;;3.55;;
13208;SDS011;6669;42.678;23.332;2022-07-29T09:50:37;3.50;;;3.13;;
13208;SDS011;6669;42.678;23.332;2022-07-29T09:53:07;3.65;;;3.05;;
13208;SDS011;6669;42.678;23.332;2022-07-29T09:55:46;2.80;;;2.60;;
13208;SDS011;6669;42.678;23.332;2022-07-29T09:58:17;3.88;;;3.30;;
13208;SDS011;6669;42.678;23.332;2022-07-29T10:00:46;4.20;;;3.10;;
13208;SDS011;6669;42.678;23.332;2022-07-29T10:03:15;3.10;;;2.80;;
13208;SDS011;6669;42.678;23.332;2022-07-29T10:05:46;3.72;;;2.83;;
13208;SDS011;6669;42.678;23.332;2022-07-29T10:08:32;4.85;;;3.30;;
13208;SDS011;6669;42.678;23.332;2022-07-29T10:11:08;4.32;;;3.10;;
13208;SDS011;6669;42.678;23.332;2022-07-29T10:13:38;3.30;;;3.00;;
13208;SDS011;6669;42.678;23.332;2022-07-29T10:16:08;3.75;;;3.10;;
13208;SDS011;6669;42.678;23.332;2022-07-29T10:18:37;3.70;;;2.97;;
13208;SDS011;6669;42.678;23.332;2022-07-29T10:21:08;3.03;;;2.83;;
13208;SDS011;6669;42.678;23.332;2022-07-29T10:23:47;5.32;;;2.90;;
13208;SDS011;6669;42.678;23.332;2022-07-29T10:26:16;2.72;;;2.53;;
13208;SDS011;6669;42.678;23.332;2022-07-29T10:28:45;4.85;;;2.75;;
13208;SDS011;6669;42.678;23.332;2022-07-29T10:31:15;3.05;;;2.80;;
13208;SDS011;6669;42.678;23.332;2022-07-29T10:33:54;3.30;;;2.75;;
13208;SDS011;6669;42.678;23.332;2022-07-29T10:36:42;2.92;;;2.60;;
13208;SDS011;6669;42.678;23.332;2022-07-29T10:39:22;3.65;;;2.70;;
13208;SDS011;6669;42.678;23.332;2022-07-29T10:42:15;3.47;;;2.88;;
13208;SDS011;6669;42.678;23.332;2022-07-29T10:45:06;3.55;;;2.83;;
13208;SDS011;6669;42.678;23.332;2022-07-29T10:47:37;2.88;;;2.45;;
13208;SDS011;6669;42.678;23.332;2022-07-29T10:50:07;2.97;;;2.10;;
13208;SDS011;6669;42.678;23.332;2022-07-29T10:52:53;3.58;;;2.70;;
13208;SDS011;6669;42.678;23.332;2022-07-29T10:55:32;3.20;;;2.90;;
13208;SDS011;6669;42.678;23.332;2022-07-29T10:58:13;2.97;;;2.78;;
13208;SDS011;6669;42.678;23.332;2022-07-29T11:00:44;4.88;;;2.40;;
13208;SDS011;6669;42.678;23.332;2022-07-29T11:03:43;2.97;;;2.70;;
13208;SDS011;6669;42.678;23.332;2022-07-29T11:06:16;4.07;;;2.78;;
13208;SDS011;6669;42.678;23.332;2022-07-29T11:12:00;3.05;;;2.53;;
13208;SDS011;6669;42.678;23.332;2022-07-29T11:17:23;3.38;;;2.30;;
13208;SDS011;6669;42.678;23.332;2022-07-29T11:19:51;3.03;;;2.60;;
13208;SDS011;6669;42.678;23.332;2022-07-29T11:22:59;5.13;;;2.60;;
13208;SDS011;6669;42.678;23.332;2022-07-29T11:25:31;2.97;;;2.70;;
13208;SDS011;6669;42.678;23.332;2022-07-29T11:28:17;4.15;;;2.85;;
13208;SDS011;6669;42.678;23.332;2022-07-29T11:30:51;2.80;;;2.60;;
13208;SDS011;6669;42.678;23.332;2022-07-29T11:33:29;3.00;;;2.70;;
13208;SDS011;6669;42.678;23.332;2022-07-29T11:36:18;3.15;;;2.85;;
13208;SDS011;6669;42.678;23.332;2022-07-29T11:38:54;4.40;;;2.60;;
13208;SDS011;6669;42.678;23.332;2022-07-29T11:45:13;3.45;;;3.15;;
13208;SDS011;6669;42.678;23.332;2022-07-29T11:48:03;3.05;;;2.80;;
13208;SDS011;6669;42.678;23.332;2022-07-29T11:50:52;4.28;;;3.88;;
13208;SDS011;6669;42.678;23.332;2022-07-29T11:53:23;3.15;;;2.80;;
13208;SDS011;6669;42.678;23.332;2022-07-29T11:56:12;2.92;;;2.72;;
13208;SDS011;6669;42.678;23.332;2022-07-29T11:58:42;3.65;;;3.28;;
13208;SDS011;6669;42.678;23.332;2022-07-29T12:01:14;2.90;;;2.70;;
13208;SDS011;6669;42.678;23.332;2022-07-29T12:03:45;4.78;;;3.63;;
13208;SDS011;6669;42.678;23.332;2022-07-29T12:06:13;4.53;;;3.40;;
13208;SDS011;6669;42.678;23.332;2022-07-29T12:08:43;4.95;;;2.90;;
13208;SDS011;6669;42.678;23.332;2022-07-29T12:11:16;5.25;;;3.80;;
13208;SDS011;6669;42.678;23.332;2022-07-29T12:13:47;3.22;;;2.92;;
13208;SDS011;6669;42.678;23.332;2022-07-29T12:16:17;5.35;;;3.00;;
13208;SDS011;6669;42.678;23.332;2022-07-29T12:18:55;4.93;;;2.55;;
13208;SDS011;6669;42.678;23.332;2022-07-29T12:21:27;3.40;;;2.97;;
13208;SDS011;6669;42.678;23.332;2022-07-29T12:23:56;3.40;;;3.10;;
13208;SDS011;6669;42.678;23.332;2022-07-29T12:26:34;3.47;;;3.17;;
13208;SDS011;6669;42.678;23.332;2022-07-29T12:29:05;3.35;;;3.15;;
13208;SDS011;6669;42.678;23.332;2022-07-29T12:31:42;3.53;;;3.28;;
13208;SDS011;6669;42.678;23.332;2022-07-29T12:34:11;4.20;;;3.05;;
13208;SDS011;6669;42.678;23.332;2022-07-29T12:36:40;3.40;;;3.13;;
13208;SDS011;6669;42.678;23.332;2022-07-29T12:39:10;3.30;;;3.00;;
13208;SDS011;6669;42.678;23.332;2022-07-29T12:41:38;3.78;;;3.28;;
13208;SDS011;6669;42.678;23.332;2022-07-29T12:44:07;3.45;;;3.00;;
13208;SDS011;6669;42.678;23.332;2022-07-29T12:46:35;4.15;;;3.13;;
13208;SDS011;6669;42.678;23.332;2022-07-29T12:49:06;3.65;;;3.20;;
13208;SDS011;6669;42.678;23.332;2022-07-29T12:51:35;3.50;;;3.20;;
13208;SDS011;6669;42.678;23.332;2022-07-29T12:54:05;5.22;;;3.28;;
13208;SDS011;6669;42.678;23.332;2022-07-29T12:56:34;3.47;;;3.17;;
13208;SDS011;6669;42.678;23.332;2022-07-29T12:59:11;3.63;;;3.33;;
13208;SDS011;6669;42.678;23.332;2022-07-29T13:01:40;3.03;;;2.83;;
13208;SDS011;6669;42.678;23.332;2022-07-29T13:04:10;3.38;;;3.15;;
13208;SDS011;6669;42.678;23.332;2022-07-29T13:06:39;3.17;;;2.97;;
13208;SDS011;6669;42.678;23.332;2022-07-29T13:09:15;4.03;;;3.50;;
13208;SDS011;6669;42.678;23.332;2022-07-29T13:11:45;3.92;;;3.50;;
13208;SDS011;6669;42.678;23.332;2022-07-29T13:14:29;3.28;;;3.08;;
13208;SDS011;6669;42.678;23.332;2022-07-29T13:17:02;4.03;;;3.20;;
13208;SDS011;6669;42.678;23.332;2022-07-29T13:19:34;6.88;;;3.33;;
13208;SDS011;6669;42.678;23.332;2022-07-29T13:22:04;3.55;;;3.25;;
13208;SDS011;6669;42.678;23.332;2022-07-29T13:24:32;3.47;;;3.17;;
13208;SDS011;6669;42.678;23.332;2022-07-29T13:27:01;4.35;;;3.05;;
13208;SDS011;6669;42.678;23.332;2022-07-29T13:29:31;3.58;;;3.28;;
13208;SDS011;6669;42.678;23.332;2022-07-29T13:31:59;3.92;;;2.88;;
13208;SDS011;6669;42.678;23.332;2022-07-29T13:34:27;3.30;;;3.05;;
13208;SDS011;6669;42.678;23.332;2022-07-29T13:36:57;3.33;;;3.05;;
13208;SDS011;6669;42.678;23.332;2022-07-29T13:39:25;3.42;;;3.13;;
13208;SDS011;6669;42.678;23.332;2022-07-29T13:41:53;3.13;;;2.92;;
13208;SDS011;6669;42.678;23.332;2022-07-29T13:44:22;3.58;;;3.28;;
13208;SDS011;6669;42.678;23.332;2022-07-29T13:46:51;3.47;;;3.17;;
13208;SDS011;6669;42.678;23.332;2022-07-29T13:49:19;3.38;;;3.08;;
13208;SDS011;6669;42.678;23.332;2022-07-29T13:51:47;3.80;;;3.33;;
13208;SDS011;6669;42.678;23.332;2022-07-29T13:54:17;2.97;;;2.78;;
13208;SDS011;6669;42.678;23.332;2022-07-29T13:56:45;3.22;;;3.03;;
13208;SDS011;6669;42.678;23.332;2022-07-29T13:59:13;3.13;;;2.92;;
13208;SDS011;6669;42.678;23.332;2022-07-29T14:01:41;3.28;;;3.08;;
13208;SDS011;6669;42.678;23.332;2022-07-29T14:04:11;3.50;;;3.20;;
13208;SDS011;6669;42.678;23.332;2022-07-29T14:06:39;3.35;;;3.15;;
13208;SDS011;6669;42.678;23.332;2022-07-29T14:09:08;3.75;;;3.28;;
13208;SDS011;6669;42.678;23.332;2022-07-29T14:11:39;3.60;;;3.28;;
13208;SDS011;6669;42.678;23.332;2022-07-29T14:14:07;3.58;;;3.28;;
13208;SDS011;6669;42.678;23.332;2022-07-29T14:16:44;3.85;;;3.53;;
13208;SDS011;6669;42.678;23.332;2022-07-29T14:19:17;3.28;;;3.08;;
13208;SDS011;6669;42.678;23.332;2022-07-29T14:21:45;4.13;;;3.20;;
13208;SDS011;6669;42.678;23.332;2022-07-29T14:24:15;3.17;;;2.92;;
13208;SDS011;6669;42.678;23.332;2022-07-29T14:26:50;3.13;;;2.80;;
13208;SDS011;6669;42.678;23.332;2022-07-29T14:29:18;4.00;;;3.00;;
13208;SDS011;6669;42.678;23.332;2022-07-29T14:31:46;3.40;;;3.10;;
13208;SDS011;6669;42.678;23.332;2022-07-29T14:34:15;3.47;;;3.17;;
13208;SDS011;6669;42.678;23.332;2022-07-29T14:36:43;3.17;;;2.97;;
13208;SDS011;6669;42.678;23.332;2022-07-29T14:39:11;3.45;;;3.15;;
13208;SDS011;6669;42.678;23.332;2022-07-29T14:41:39;3.40;;;3.10;;
13208;SDS011;6669;42.678;23.332;2022-07-29T14:44:09;3.20;;;3.00;;
13208;SDS011;6669;42.678;23.332;2022-07-29T14:46:37;3.42;;;3.10;;
13208;SDS011;6669;42.678;23.332;2022-07-29T14:49:06;5.07;;;3.10;;
13208;SDS011;6669;42.678;23.332;2022-07-29T14:51:35;3.33;;;2.88;;
13208;SDS011;6669;42.678;23.332;2022-07-29T14:54:05;3.58;;;3.00;;
13208;SDS011;6669;42.678;23.332;2022-07-29T14:56:33;3.00;;;2.80;;
13208;SDS011;6669;42.678;23.332;2022-07-29T14:59:03;3.30;;;3.00;;
13208;SDS011;6669;42.678;23.332;2022-07-29T15:01:33;3.22;;;2.90;;
13208;SDS011;6669;42.678;23.332;2022-07-29T15:04:02;3.10;;;2.90;;
13208;SDS011;6669;42.678;23.332;2022-07-29T15:06:30;3.70;;;3.22;;
13208;SDS011;6669;42.678;23.332;2022-07-29T15:08:58;3.50;;;3.20;;
13208;SDS011;6669;42.678;23.332;2022-07-29T15:11:26;3.88;;;3.35;;
13208;SDS011;6669;42.678;23.332;2022-07-29T15:13:55;3.40;;;3.10;;
13208;SDS011;6669;42.678;23.332;2022-07-29T15:16:23;3.30;;;3.10;;
13208;SDS011;6669;42.678;23.332;2022-07-29T15:18:53;3.53;;;2.97;;
13208;SDS011;6669;42.678;23.332;2022-07-29T15:21:26;4.68;;;3.47;;
13208;SDS011;6669;42.678;23.332;2022-07-29T15:23:54;3.85;;;3.30;;
13208;SDS011;6669;42.678;23.332;2022-07-29T15:26:22;3.63;;;3.28;;
13208;SDS011;6669;42.678;23.332;2022-07-29T15:28:50;4.55;;;3.55;;